sensor_id;sensor_type;location;lat;lon;timestamp;P1;durP1;ratioP1;P2;durP2;ratioP2
12848;SDS011;6493;50.928;7.172;2023-08-30T00:04:37;0.70;;;0.70;;
12848;SDS011;6493;50.928;7.172;2023-08-30T00:09:41;0.70;;;0.70;;
12848;SDS011;6493;50.928;7.172;2023-08-30T00:14:45;0.60;;;0.60;;
12848;SDS011;6493;50.928;7.172;2023-08-30T00:19:50;0.77;;;0.77;;
12848;SDS011;6493;50.928;7.172;2023-08-30T00:24:54;0.77;;;0.77;;
12848;SDS011;6493;50.928;7.172;2023-08-30T00:29:58;0.70;;;0.70;;
12848;SDS011;6493;50.928;7.172;2023-08-30T00:35:04;0.80;;;0.80;;
12848;SDS011;6493;50.928;7.172;2023-08-30T00:40:08;0.70;;;0.70;;
12848;SDS011;6493;50.928;7.172;2023-08-30T00:45:12;0.80;;;0.80;;
12848;SDS011;6493;50.928;7.172;2023-08-30T00:50:17;1.03;;;0.70;;
12848;SDS011;6493;50.928;7.172;2023-08-30T00:55:21;0.90;;;0.90;;
12848;SDS011;6493;50.928;7.172;2023-08-30T01:00:25;0.80;;;0.80;;
12848;SDS011;6493;50.928;7.172;2023-08-30T01:05:31;1.10;;;1.00;;
12848;SDS011;6493;50.928;7.172;2023-08-30T01:10:47;0.77;;;0.77;;
12848;SDS011;6493;50.928;7.172;2023-08-30T01:15:58;0.90;;;0.90;;
12848;SDS011;6493;50.928;7.172;2023-08-30T01:21:04;0.70;;;0.70;;
12848;SDS011;6493;50.928;7.172;2023-08-30T01:26:17;0.90;;;0.90;;
12848;SDS011;6493;50.928;7.172;2023-08-30T01:31:28;1.07;;;1.07;;
12848;SDS011;6493;50.928;7.172;2023-08-30T01:36:35;1.00;;;1.00;;
12848;SDS011;6493;50.928;7.172;2023-08-30T01:41:39;1.27;;;1.17;;
12848;SDS011;6493;50.928;7.172;2023-08-30T01:46:45;1.00;;;0.97;;
12848;SDS011;6493;50.928;7.172;2023-08-30T01:51:50;1.03;;;0.93;;
12848;SDS011;6493;50.928;7.172;2023-08-30T01:56:54;1.47;;;0.97;;
12848;SDS011;6493;50.928;7.172;2023-08-30T02:02:01;0.90;;;0.90;;
12848;SDS011;6493;50.928;7.172;2023-08-30T02:07:07;1.30;;;1.20;;
12848;SDS011;6493;50.928;7.172;2023-08-30T02:12:17;1.10;;;1.00;;
12848;SDS011;6493;50.928;7.172;2023-08-30T02:17:23;1.20;;;1.10;;
12848;SDS011;6493;50.928;7.172;2023-08-30T02:22:27;1.73;;;1.10;;
12848;SDS011;6493;50.928;7.172;2023-08-30T02:27:33;1.30;;;1.13;;
12848;SDS011;6493;50.928;7.172;2023-08-30T02:32:38;1.53;;;1.43;;
12848;SDS011;6493;50.928;7.172;2023-08-30T02:37:43;1.70;;;1.20;;
12848;SDS011;6493;50.928;7.172;2023-08-30T02:42:46;1.27;;;1.17;;
12848;SDS011;6493;50.928;7.172;2023-08-30T02:47:51;2.90;;;1.40;;
12848;SDS011;6493;50.928;7.172;2023-08-30T02:52:58;1.00;;;1.00;;
12848;SDS011;6493;50.928;7.172;2023-08-30T02:58:02;1.13;;;1.03;;
12848;SDS011;6493;50.928;7.172;2023-08-30T03:03:07;1.20;;;1.10;;
12848;SDS011;6493;50.928;7.172;2023-08-30T03:08:11;1.37;;;1.27;;
12848;SDS011;6493;50.928;7.172;2023-08-30T03:13:15;1.40;;;1.30;;
12848;SDS011;6493;50.928;7.172;2023-08-30T03:18:20;1.23;;;1.13;;
12848;SDS011;6493;50.928;7.172;2023-08-30T03:23:24;1.63;;;1.40;;
12848;SDS011;6493;50.928;7.172;2023-08-30T03:28:27;1.60;;;1.50;;
12848;SDS011;6493;50.928;7.172;2023-08-30T03:33:32;1.43;;;1.10;;
12848;SDS011;6493;50.928;7.172;2023-08-30T03:38:36;1.30;;;1.20;;
12848;SDS011;6493;50.928;7.172;2023-08-30T03:43:40;1.17;;;1.10;;
12848;SDS011;6493;50.928;7.172;2023-08-30T03:48:45;1.23;;;1.13;;
12848;SDS011;6493;50.928;7.172;2023-08-30T03:53:49;1.30;;;1.20;;
12848;SDS011;6493;50.928;7.172;2023-08-30T03:58:54;1.40;;;1.30;;
12848;SDS011;6493;50.928;7.172;2023-08-30T04:03:59;1.00;;;1.00;;
12848;SDS011;6493;50.928;7.172;2023-08-30T04:09:03;0.90;;;0.90;;
12848;SDS011;6493;50.928;7.172;2023-08-30T04:14:07;0.80;;;0.80;;
12848;SDS011;6493;50.928;7.172;2023-08-30T04:19:12;1.10;;;1.10;;
12848;SDS011;6493;50.928;7.172;2023-08-30T04:24:16;1.20;;;1.10;;
12848;SDS011;6493;50.928;7.172;2023-08-30T04:29:20;1.13;;;0.90;;
12848;SDS011;6493;50.928;7.172;2023-08-30T04:34:26;1.30;;;1.20;;
12848;SDS011;6493;50.928;7.172;2023-08-30T04:39:31;2.70;;;0.90;;
12848;SDS011;6493;50.928;7.172;2023-08-30T04:44:35;1.00;;;1.00;;
12848;SDS011;6493;50.928;7.172;2023-08-30T04:49:43;0.90;;;0.90;;
12848;SDS011;6493;50.928;7.172;2023-08-30T04:54:46;0.83;;;0.83;;
12848;SDS011;6493;50.928;7.172;2023-08-30T04:59:51;0.90;;;0.90;;
12848;SDS011;6493;50.928;7.172;2023-08-30T05:04:56;0.90;;;0.90;;
12848;SDS011;6493;50.928;7.172;2023-08-30T05:09:59;1.20;;;1.10;;
12848;SDS011;6493;50.928;7.172;2023-08-30T05:15:04;1.00;;;0.90;;
12848;SDS011;6493;50.928;7.172;2023-08-30T05:20:10;1.30;;;1.20;;
12848;SDS011;6493;50.928;7.172;2023-08-30T05:25:14;1.00;;;0.90;;
12848;SDS011;6493;50.928;7.172;2023-08-30T05:30:18;1.17;;;1.07;;
12848;SDS011;6493;50.928;7.172;2023-08-30T05:35:23;1.00;;;1.00;;
12848;SDS011;6493;50.928;7.172;2023-08-30T05:40:43;1.57;;;1.10;;
12848;SDS011;6493;50.928;7.172;2023-08-30T05:45:47;1.30;;;1.20;;
12848;SDS011;6493;50.928;7.172;2023-08-30T05:50:52;1.10;;;1.10;;
12848;SDS011;6493;50.928;7.172;2023-08-30T05:55:56;1.33;;;1.23;;
12848;SDS011;6493;50.928;7.172;2023-08-30T06:01:00;1.40;;;1.30;;
12848;SDS011;6493;50.928;7.172;2023-08-30T06:06:08;1.57;;;1.47;;
12848;SDS011;6493;50.928;7.172;2023-08-30T06:11:11;1.70;;;1.60;;
12848;SDS011;6493;50.928;7.172;2023-08-30T06:16:15;1.47;;;1.37;;
12848;SDS011;6493;50.928;7.172;2023-08-30T06:21:20;1.50;;;1.40;;
12848;SDS011;6493;50.928;7.172;2023-08-30T06:26:24;1.97;;;1.37;;
12848;SDS011;6493;50.928;7.172;2023-08-30T06:31:28;1.63;;;1.53;;
12848;SDS011;6493;50.928;7.172;2023-08-30T06:36:33;1.50;;;1.40;;
12848;SDS011;6493;50.928;7.172;2023-08-30T06:41:37;1.40;;;1.30;;
12848;SDS011;6493;50.928;7.172;2023-08-30T06:46:40;2.10;;;2.00;;
12848;SDS011;6493;50.928;7.172;2023-08-30T06:51:45;2.80;;;2.50;;
12848;SDS011;6493;50.928;7.172;2023-08-30T06:56:58;2.17;;;1.80;;
12848;SDS011;6493;50.928;7.172;2023-08-30T07:02:03;2.50;;;2.30;;
12848;SDS011;6493;50.928;7.172;2023-08-30T07:07:09;1.60;;;1.50;;
12848;SDS011;6493;50.928;7.172;2023-08-30T07:12:12;2.13;;;2.00;;
12848;SDS011;6493;50.928;7.172;2023-08-30T07:17:16;1.70;;;1.60;;
12848;SDS011;6493;50.928;7.172;2023-08-30T07:22:21;1.97;;;1.83;;
12848;SDS011;6493;50.928;7.172;2023-08-30T07:27:24;3.30;;;3.00;;
12848;SDS011;6493;50.928;7.172;2023-08-30T07:32:30;3.83;;;2.20;;
12848;SDS011;6493;50.928;7.172;2023-08-30T07:37:35;2.30;;;2.10;;
12848;SDS011;6493;50.928;7.172;2023-08-30T07:42:39;2.17;;;1.97;;
12848;SDS011;6493;50.928;7.172;2023-08-30T07:47:42;2.20;;;1.93;;
12848;SDS011;6493;50.928;7.172;2023-08-30T07:52:47;2.63;;;2.43;;
12848;SDS011;6493;50.928;7.172;2023-08-30T07:57:51;1.87;;;1.73;;
12848;SDS011;6493;50.928;7.172;2023-08-30T08:02:55;2.57;;;2.30;;
12848;SDS011;6493;50.928;7.172;2023-08-30T08:08:00;2.23;;;1.97;;
12848;SDS011;6493;50.928;7.172;2023-08-30T08:13:04;1.53;;;1.43;;
12848;SDS011;6493;50.928;7.172;2023-08-30T08:18:09;1.87;;;1.67;;
12848;SDS011;6493;50.928;7.172;2023-08-30T08:23:14;1.90;;;1.80;;
12848;SDS011;6493;50.928;7.172;2023-08-30T08:28:18;2.40;;;1.50;;
12848;SDS011;6493;50.928;7.172;2023-08-30T08:33:21;3.00;;;2.73;;
12848;SDS011;6493;50.928;7.172;2023-08-30T08:38:27;2.57;;;2.00;;
12848;SDS011;6493;50.928;7.172;2023-08-30T08:43:32;1.67;;;1.50;;
12848;SDS011;6493;50.928;7.172;2023-08-30T08:48:39;1.50;;;1.40;;
12848;SDS011;6493;50.928;7.172;2023-08-30T08:53:45;1.73;;;1.60;;
12848;SDS011;6493;50.928;7.172;2023-08-30T08:58:49;2.13;;;1.90;;
12848;SDS011;6493;50.928;7.172;2023-08-30T09:03:53;2.23;;;1.80;;
12848;SDS011;6493;50.928;7.172;2023-08-30T09:08:58;1.90;;;1.70;;
12848;SDS011;6493;50.928;7.172;2023-08-30T09:14:02;1.60;;;1.33;;
12848;SDS011;6493;50.928;7.172;2023-08-30T09:19:06;2.23;;;1.77;;
12848;SDS011;6493;50.928;7.172;2023-08-30T09:24:13;2.17;;;1.63;;
12848;SDS011;6493;50.928;7.172;2023-08-30T09:29:17;1.40;;;1.30;;
12848;SDS011;6493;50.928;7.172;2023-08-30T09:34:22;1.87;;;1.60;;
12848;SDS011;6493;50.928;7.172;2023-08-30T09:39:28;1.27;;;1.17;;
12848;SDS011;6493;50.928;7.172;2023-08-30T09:44:32;1.30;;;1.20;;
12848;SDS011;6493;50.928;7.172;2023-08-30T09:49:39;1.10;;;1.00;;
12848;SDS011;6493;50.928;7.172;2023-08-30T09:54:47;1.20;;;1.10;;
12848;SDS011;6493;50.928;7.172;2023-08-30T09:59:50;0.90;;;0.90;;
12848;SDS011;6493;50.928;7.172;2023-08-30T10:04:54;1.13;;;0.80;;
12848;SDS011;6493;50.928;7.172;2023-08-30T10:10:01;0.90;;;0.90;;
12848;SDS011;6493;50.928;7.172;2023-08-30T10:15:11;0.80;;;0.80;;
12848;SDS011;6493;50.928;7.172;2023-08-30T10:20:15;1.07;;;0.70;;
12848;SDS011;6493;50.928;7.172;2023-08-30T10:25:21;0.70;;;0.70;;
12848;SDS011;6493;50.928;7.172;2023-08-30T10:30:27;0.83;;;0.83;;
12848;SDS011;6493;50.928;7.172;2023-08-30T10:35:31;0.73;;;0.73;;
12848;SDS011;6493;50.928;7.172;2023-08-30T10:40:45;0.70;;;0.70;;
12848;SDS011;6493;50.928;7.172;2023-08-30T10:45:57;0.80;;;0.80;;
12848;SDS011;6493;50.928;7.172;2023-08-30T10:51:03;1.03;;;0.90;;
12848;SDS011;6493;50.928;7.172;2023-08-30T10:56:13;1.30;;;1.20;;
12848;SDS011;6493;50.928;7.172;2023-08-30T11:01:18;0.67;;;0.67;;
12848;SDS011;6493;50.928;7.172;2023-08-30T11:06:23;1.40;;;1.30;;
12848;SDS011;6493;50.928;7.172;2023-08-30T11:11:28;1.30;;;0.90;;
12848;SDS011;6493;50.928;7.172;2023-08-30T11:16:31;1.30;;;1.20;;
12848;SDS011;6493;50.928;7.172;2023-08-30T11:21:36;1.33;;;1.03;;
12848;SDS011;6493;50.928;7.172;2023-08-30T11:26:42;1.07;;;1.07;;
12848;SDS011;6493;50.928;7.172;2023-08-30T11:31:46;1.50;;;1.33;;
12848;SDS011;6493;50.928;7.172;2023-08-30T11:36:51;1.27;;;1.10;;
12848;SDS011;6493;50.928;7.172;2023-08-30T11:41:57;1.30;;;1.00;;
12848;SDS011;6493;50.928;7.172;2023-08-30T11:47:18;0.90;;;0.87;;
12848;SDS011;6493;50.928;7.172;2023-08-30T11:52:22;1.00;;;0.80;;
12848;SDS011;6493;50.928;7.172;2023-08-30T11:57:28;0.77;;;0.70;;
12848;SDS011;6493;50.928;7.172;2023-08-30T12:02:36;0.60;;;0.60;;
12848;SDS011;6493;50.928;7.172;2023-08-30T12:07:40;0.47;;;0.47;;
12848;SDS011;6493;50.928;7.172;2023-08-30T12:12:46;0.63;;;0.63;;
12848;SDS011;6493;50.928;7.172;2023-08-30T12:17:49;0.60;;;0.60;;
12848;SDS011;6493;50.928;7.172;2023-08-30T12:22:53;0.60;;;0.53;;
12848;SDS011;6493;50.928;7.172;2023-08-30T12:27:58;0.73;;;0.60;;
12848;SDS011;6493;50.928;7.172;2023-08-30T12:33:02;0.60;;;0.60;;
12848;SDS011;6493;50.928;7.172;2023-08-30T12:38:06;0.40;;;0.40;;
12848;SDS011;6493;50.928;7.172;2023-08-30T12:43:12;0.70;;;0.50;;
12848;SDS011;6493;50.928;7.172;2023-08-30T12:48:16;0.50;;;0.50;;
12848;SDS011;6493;50.928;7.172;2023-08-30T12:53:21;0.50;;;0.40;;
12848;SDS011;6493;50.928;7.172;2023-08-30T12:58:26;0.53;;;0.47;;
12848;SDS011;6493;50.928;7.172;2023-08-30T13:03:30;0.60;;;0.60;;
12848;SDS011;6493;50.928;7.172;2023-08-30T13:08:34;0.40;;;0.40;;
12848;SDS011;6493;50.928;7.172;2023-08-30T13:13:39;0.50;;;0.50;;
12848;SDS011;6493;50.928;7.172;2023-08-30T13:18:43;0.53;;;0.50;;
12848;SDS011;6493;50.928;7.172;2023-08-30T13:23:47;0.30;;;0.30;;
12848;SDS011;6493;50.928;7.172;2023-08-30T13:28:53;0.50;;;0.50;;
12848;SDS011;6493;50.928;7.172;2023-08-30T13:33:59;0.40;;;0.40;;
12848;SDS011;6493;50.928;7.172;2023-08-30T13:39:02;0.40;;;0.40;;
12848;SDS011;6493;50.928;7.172;2023-08-30T13:44:08;0.30;;;0.30;;
12848;SDS011;6493;50.928;7.172;2023-08-30T13:49:12;0.30;;;0.30;;
12848;SDS011;6493;50.928;7.172;2023-08-30T13:54:15;0.37;;;0.20;;
12848;SDS011;6493;50.928;7.172;2023-08-30T13:59:20;0.30;;;0.30;;
12848;SDS011;6493;50.928;7.172;2023-08-30T14:04:24;0.57;;;0.30;;
12848;SDS011;6493;50.928;7.172;2023-08-30T14:09:28;0.30;;;0.30;;
12848;SDS011;6493;50.928;7.172;2023-08-30T14:14:33;0.20;;;0.20;;
12848;SDS011;6493;50.928;7.172;2023-08-30T14:19:37;0.30;;;0.30;;
12848;SDS011;6493;50.928;7.172;2023-08-30T14:24:40;0.37;;;0.30;;
12848;SDS011;6493;50.928;7.172;2023-08-30T14:30:08;0.20;;;0.20;;
12848;SDS011;6493;50.928;7.172;2023-08-30T14:35:12;0.37;;;0.37;;
12848;SDS011;6493;50.928;7.172;2023-08-30T14:40:16;0.30;;;0.30;;
12848;SDS011;6493;50.928;7.172;2023-08-30T14:45:21;0.20;;;0.20;;
12848;SDS011;6493;50.928;7.172;2023-08-30T14:50:25;0.50;;;0.47;;
12848;SDS011;6493;50.928;7.172;2023-08-30T14:55:28;0.40;;;0.40;;
12848;SDS011;6493;50.928;7.172;2023-08-30T15:00:34;0.43;;;0.43;;
12848;SDS011;6493;50.928;7.172;2023-08-30T15:05:37;0.73;;;0.60;;
12848;SDS011;6493;50.928;7.172;2023-08-30T15:10:41;0.50;;;0.50;;
12848;SDS011;6493;50.928;7.172;2023-08-30T15:15:46;0.33;;;0.33;;
12848;SDS011;6493;50.928;7.172;2023-08-30T15:20:51;0.57;;;0.57;;
12848;SDS011;6493;50.928;7.172;2023-08-30T15:25:55;0.80;;;0.70;;
12848;SDS011;6493;50.928;7.172;2023-08-30T15:31:00;0.50;;;0.50;;
12848;SDS011;6493;50.928;7.172;2023-08-30T15:36:05;1.23;;;0.73;;
12848;SDS011;6493;50.928;7.172;2023-08-30T15:41:08;0.50;;;0.50;;
12848;SDS011;6493;50.928;7.172;2023-08-30T15:46:14;0.67;;;0.60;;
12848;SDS011;6493;50.928;7.172;2023-08-30T15:51:17;0.77;;;0.77;;
12848;SDS011;6493;50.928;7.172;2023-08-30T15:56:25;1.67;;;0.70;;
12848;SDS011;6493;50.928;7.172;2023-08-30T16:01:30;0.73;;;0.73;;
12848;SDS011;6493;50.928;7.172;2023-08-30T16:06:34;0.60;;;0.60;;
12848;SDS011;6493;50.928;7.172;2023-08-30T16:11:38;0.60;;;0.60;;
12848;SDS011;6493;50.928;7.172;2023-08-30T16:16:43;0.60;;;0.60;;
12848;SDS011;6493;50.928;7.172;2023-08-30T16:21:47;0.63;;;0.60;;
12848;SDS011;6493;50.928;7.172;2023-08-30T16:26:54;0.80;;;0.60;;
12848;SDS011;6493;50.928;7.172;2023-08-30T16:31:59;1.23;;;0.87;;
12848;SDS011;6493;50.928;7.172;2023-08-30T16:37:03;0.60;;;0.60;;
12848;SDS011;6493;50.928;7.172;2023-08-30T16:42:07;0.70;;;0.70;;
12848;SDS011;6493;50.928;7.172;2023-08-30T16:47:12;0.90;;;0.80;;
12848;SDS011;6493;50.928;7.172;2023-08-30T16:52:15;0.63;;;0.63;;
12848;SDS011;6493;50.928;7.172;2023-08-30T16:57:19;0.50;;;0.50;;
12848;SDS011;6493;50.928;7.172;2023-08-30T17:02:28;0.70;;;0.70;;
12848;SDS011;6493;50.928;7.172;2023-08-30T17:07:32;0.67;;;0.67;;
12848;SDS011;6493;50.928;7.172;2023-08-30T17:12:35;0.60;;;0.60;;
12848;SDS011;6493;50.928;7.172;2023-08-30T17:17:41;0.80;;;0.80;;
12848;SDS011;6493;50.928;7.172;2023-08-30T17:22:44;1.90;;;0.90;;
12848;SDS011;6493;50.928;7.172;2023-08-30T17:27:48;0.73;;;0.73;;
12848;SDS011;6493;50.928;7.172;2023-08-30T17:32:53;1.20;;;1.10;;
12848;SDS011;6493;50.928;7.172;2023-08-30T17:37:59;0.83;;;0.83;;
12848;SDS011;6493;50.928;7.172;2023-08-30T17:43:05;1.07;;;0.97;;
12848;SDS011;6493;50.928;7.172;2023-08-30T17:48:10;1.10;;;1.00;;
12848;SDS011;6493;50.928;7.172;2023-08-30T17:53:14;1.20;;;0.90;;
12848;SDS011;6493;50.928;7.172;2023-08-30T17:58:18;0.80;;;0.80;;
12848;SDS011;6493;50.928;7.172;2023-08-30T18:03:23;0.80;;;0.70;;
12848;SDS011;6493;50.928;7.172;2023-08-30T18:08:31;0.70;;;0.70;;
12848;SDS011;6493;50.928;7.172;2023-08-30T18:13:35;1.00;;;0.83;;
12848;SDS011;6493;50.928;7.172;2023-08-30T18:18:40;1.80;;;0.80;;
12848;SDS011;6493;50.928;7.172;2023-08-30T18:29:16;0.73;;;0.73;;
12848;SDS011;6493;50.928;7.172;2023-08-30T18:34:22;0.90;;;0.77;;
12848;SDS011;6493;50.928;7.172;2023-08-30T18:39:26;0.80;;;0.80;;
12848;SDS011;6493;50.928;7.172;2023-08-30T18:44:30;0.80;;;0.80;;
12848;SDS011;6493;50.928;7.172;2023-08-30T18:49:35;0.77;;;0.77;;
12848;SDS011;6493;50.928;7.172;2023-08-30T18:54:41;0.73;;;0.73;;
12848;SDS011;6493;50.928;7.172;2023-08-30T18:59:46;0.70;;;0.70;;
12848;SDS011;6493;50.928;7.172;2023-08-30T19:04:51;0.70;;;0.70;;
12848;SDS011;6493;50.928;7.172;2023-08-30T19:09:55;0.80;;;0.80;;
12848;SDS011;6493;50.928;7.172;2023-08-30T19:14:59;0.53;;;0.53;;
12848;SDS011;6493;50.928;7.172;2023-08-30T19:20:06;0.80;;;0.80;;
12848;SDS011;6493;50.928;7.172;2023-08-30T19:25:10;0.70;;;0.60;;
12848;SDS011;6493;50.928;7.172;2023-08-30T19:30:17;1.00;;;0.77;;
12848;SDS011;6493;50.928;7.172;2023-08-30T19:35:23;0.77;;;0.63;;
12848;SDS011;6493;50.928;7.172;2023-08-30T19:40:26;0.70;;;0.70;;
12848;SDS011;6493;50.928;7.172;2023-08-30T19:45:30;0.80;;;0.63;;
12848;SDS011;6493;50.928;7.172;2023-08-30T19:50:36;0.87;;;0.80;;
12848;SDS011;6493;50.928;7.172;2023-08-30T19:55:39;1.00;;;0.70;;
12848;SDS011;6493;50.928;7.172;2023-08-30T20:00:43;0.70;;;0.70;;
12848;SDS011;6493;50.928;7.172;2023-08-30T20:05:50;0.60;;;0.60;;
12848;SDS011;6493;50.928;7.172;2023-08-30T20:10:59;0.50;;;0.50;;
12848;SDS011;6493;50.928;7.172;2023-08-30T20:16:05;0.50;;;0.50;;
12848;SDS011;6493;50.928;7.172;2023-08-30T20:21:13;0.50;;;0.50;;
12848;SDS011;6493;50.928;7.172;2023-08-30T20:26:17;0.40;;;0.40;;
12848;SDS011;6493;50.928;7.172;2023-08-30T20:31:22;0.40;;;0.40;;
12848;SDS011;6493;50.928;7.172;2023-08-30T20:36:27;0.70;;;0.60;;
12848;SDS011;6493;50.928;7.172;2023-08-30T20:41:41;2.30;;;0.60;;
12848;SDS011;6493;50.928;7.172;2023-08-30T20:46:44;0.87;;;0.50;;
12848;SDS011;6493;50.928;7.172;2023-08-30T20:51:49;0.77;;;0.40;;
12848;SDS011;6493;50.928;7.172;2023-08-30T20:56:53;1.13;;;0.60;;
12848;SDS011;6493;50.928;7.172;2023-08-30T21:01:56;0.60;;;0.37;;
12848;SDS011;6493;50.928;7.172;2023-08-30T21:07:02;0.50;;;0.50;;
12848;SDS011;6493;50.928;7.172;2023-08-30T21:12:06;0.50;;;0.37;;
12848;SDS011;6493;50.928;7.172;2023-08-30T21:17:10;0.50;;;0.50;;
12848;SDS011;6493;50.928;7.172;2023-08-30T21:22:15;1.60;;;0.40;;
12848;SDS011;6493;50.928;7.172;2023-08-30T21:27:18;0.30;;;0.30;;
12848;SDS011;6493;50.928;7.172;2023-08-30T21:32:22;0.80;;;0.50;;
12848;SDS011;6493;50.928;7.172;2023-08-30T21:37:27;0.83;;;0.50;;
12848;SDS011;6493;50.928;7.172;2023-08-30T21:42:30;0.30;;;0.30;;
12848;SDS011;6493;50.928;7.172;2023-08-30T21:47:34;0.40;;;0.40;;
12848;SDS011;6493;50.928;7.172;2023-08-30T21:52:41;1.63;;;0.37;;
12848;SDS011;6493;50.928;7.172;2023-08-30T21:57:45;0.43;;;0.33;;
12848;SDS011;6493;50.928;7.172;2023-08-30T22:02:48;0.60;;;0.47;;
12848;SDS011;6493;50.928;7.172;2023-08-30T22:07:54;0.43;;;0.37;;
12848;SDS011;6493;50.928;7.172;2023-08-30T22:12:57;0.50;;;0.47;;
12848;SDS011;6493;50.928;7.172;2023-08-30T22:18:01;0.43;;;0.33;;
12848;SDS011;6493;50.928;7.172;2023-08-30T22:23:07;0.43;;;0.43;;
12848;SDS011;6493;50.928;7.172;2023-08-30T22:28:11;0.40;;;0.40;;
12848;SDS011;6493;50.928;7.172;2023-08-30T22:33:15;0.73;;;0.40;;
12848;SDS011;6493;50.928;7.172;2023-08-30T22:38:21;0.50;;;0.40;;
12848;SDS011;6493;50.928;7.172;2023-08-30T22:43:24;0.60;;;0.40;;
12848;SDS011;6493;50.928;7.172;2023-08-30T22:48:28;0.37;;;0.37;;
12848;SDS011;6493;50.928;7.172;2023-08-30T22:53:33;1.13;;;0.60;;
12848;SDS011;6493;50.928;7.172;2023-08-30T22:58:37;0.77;;;0.57;;
12848;SDS011;6493;50.928;7.172;2023-08-30T23:03:40;0.73;;;0.50;;
12848;SDS011;6493;50.928;7.172;2023-08-30T23:08:46;0.50;;;0.40;;
12848;SDS011;6493;50.928;7.172;2023-08-30T23:13:49;0.83;;;0.53;;
12848;SDS011;6493;50.928;7.172;2023-08-30T23:18:53;0.30;;;0.30;;
12848;SDS011;6493;50.928;7.172;2023-08-30T23:23:58;0.77;;;0.50;;
12848;SDS011;6493;50.928;7.172;2023-08-30T23:29:02;0.50;;;0.50;;
12848;SDS011;6493;50.928;7.172;2023-08-30T23:34:07;0.83;;;0.60;;
12848;SDS011;6493;50.928;7.172;2023-08-30T23:39:13;0.80;;;0.60;;
12848;SDS011;6493;50.928;7.172;2023-08-30T23:44:17;2.87;;;0.43;;
12848;SDS011;6493;50.928;7.172;2023-08-30T23:49:20;1.00;;;0.80;;
12848;SDS011;6493;50.928;7.172;2023-08-30T23:54:26;0.60;;;0.40;;
12848;SDS011;6493;50.928;7.172;2023-08-30T23:59:29;0.77;;;0.50;;
